sensor_id;sensor_type;location;lat;lon;timestamp;P1;durP1;ratioP1;P2;durP2;ratioP2
4466;SDS011;2246;42.664;23.278;2022-09-09T00:00:39;13.70;;;10.40;;
4466;SDS011;2246;42.664;23.278;2022-09-09T00:03:14;18.60;;;11.45;;
4466;SDS011;2246;42.664;23.278;2022-09-09T00:08:09;16.58;;;10.77;;
4466;SDS011;2246;42.664;23.278;2022-09-09T00:10:38;15.40;;;11.38;;
4466;SDS011;2246;42.664;23.278;2022-09-09T00:18:45;14.73;;;10.65;;
4466;SDS011;2246;42.664;23.278;2022-09-09T00:21:21;14.48;;;10.80;;
4466;SDS011;2246;42.664;23.278;2022-09-09T00:23:53;18.67;;;9.80;;
4466;SDS011;2246;42.664;23.278;2022-09-09T00:28:57;18.35;;;9.88;;
4466;SDS011;2246;42.664;23.278;2022-09-09T00:31:25;15.77;;;10.43;;
4466;SDS011;2246;42.664;23.278;2022-09-09T00:33:52;13.93;;;10.13;;
4466;SDS011;2246;42.664;23.278;2022-09-09T00:36:23;15.18;;;9.85;;
4466;SDS011;2246;42.664;23.278;2022-09-09T00:38:57;14.23;;;10.45;;
4466;SDS011;2246;42.664;23.278;2022-09-09T00:41:38;15.27;;;10.18;;
4466;SDS011;2246;42.664;23.278;2022-09-09T00:59:21;20.80;;;12.13;;
4466;SDS011;2246;42.664;23.278;2022-09-09T01:01:50;24.17;;;15.63;;
4466;SDS011;2246;42.664;23.278;2022-09-09T01:04:18;26.20;;;11.17;;
4466;SDS011;2246;42.664;23.278;2022-09-09T01:06:48;23.58;;;10.05;;
4466;SDS011;2246;42.664;23.278;2022-09-09T01:17:08;16.80;;;10.13;;
4466;SDS011;2246;42.664;23.278;2022-09-09T01:19:40;15.68;;;10.43;;
4466;SDS011;2246;42.664;23.278;2022-09-09T01:22:25;16.48;;;9.93;;
4466;SDS011;2246;42.664;23.278;2022-09-09T01:27:36;18.33;;;10.32;;
4466;SDS011;2246;42.664;23.278;2022-09-09T01:30:12;13.63;;;10.43;;
4466;SDS011;2246;42.664;23.278;2022-09-09T01:35:17;17.75;;;10.05;;
4466;SDS011;2246;42.664;23.278;2022-09-09T01:37:44;16.77;;;9.55;;
4466;SDS011;2246;42.664;23.278;2022-09-09T01:40:10;13.93;;;10.25;;
4466;SDS011;2246;42.664;23.278;2022-09-09T01:42:36;15.20;;;8.90;;
4466;SDS011;2246;42.664;23.278;2022-09-09T01:45:02;15.52;;;10.50;;
4466;SDS011;2246;42.664;23.278;2022-09-09T01:47:29;15.18;;;9.27;;
4466;SDS011;2246;42.664;23.278;2022-09-09T01:49:55;11.70;;;9.80;;
4466;SDS011;2246;42.664;23.278;2022-09-09T01:52:21;20.13;;;10.05;;
4466;SDS011;2246;42.664;23.278;2022-09-09T01:54:48;12.75;;;9.77;;
4466;SDS011;2246;42.664;23.278;2022-09-09T01:57:25;13.75;;;9.45;;
4466;SDS011;2246;42.664;23.278;2022-09-09T02:00:06;15.18;;;10.13;;
4466;SDS011;2246;42.664;23.278;2022-09-09T02:07:59;13.93;;;10.32;;
4466;SDS011;2246;42.664;23.278;2022-09-09T02:10:37;14.18;;;10.65;;
4466;SDS011;2246;42.664;23.278;2022-09-09T02:13:12;15.00;;;10.48;;
4466;SDS011;2246;42.664;23.278;2022-09-09T02:18:27;19.23;;;10.73;;
4466;SDS011;2246;42.664;23.278;2022-09-09T02:20:54;12.57;;;9.38;;
4466;SDS011;2246;42.664;23.278;2022-09-09T02:23:22;16.30;;;9.75;;
4466;SDS011;2246;42.664;23.278;2022-09-09T02:25:48;18.83;;;11.10;;
4466;SDS011;2246;42.664;23.278;2022-09-09T02:28:16;17.70;;;10.82;;
4466;SDS011;2246;42.664;23.278;2022-09-09T02:30:43;15.95;;;9.98;;
4466;SDS011;2246;42.664;23.278;2022-09-09T02:33:12;16.42;;;10.45;;
4466;SDS011;2246;42.664;23.278;2022-09-09T02:35:38;14.63;;;10.35;;
4466;SDS011;2246;42.664;23.278;2022-09-09T02:38:07;13.20;;;9.52;;
4466;SDS011;2246;42.664;23.278;2022-09-09T02:40:34;17.08;;;9.85;;
4466;SDS011;2246;42.664;23.278;2022-09-09T02:43:00;20.15;;;10.40;;
4466;SDS011;2246;42.664;23.278;2022-09-09T02:45:29;15.20;;;10.82;;
4466;SDS011;2246;42.664;23.278;2022-09-09T02:48:03;18.88;;;11.55;;
4466;SDS011;2246;42.664;23.278;2022-09-09T02:50:33;16.50;;;11.25;;
4466;SDS011;2246;42.664;23.278;2022-09-09T02:53:01;13.20;;;10.85;;
4466;SDS011;2246;42.664;23.278;2022-09-09T02:57:56;15.63;;;11.18;;
4466;SDS011;2246;42.664;23.278;2022-09-09T03:00:23;15.98;;;10.32;;
4466;SDS011;2246;42.664;23.278;2022-09-09T03:02:50;14.43;;;11.50;;
4466;SDS011;2246;42.664;23.278;2022-09-09T03:05:16;17.55;;;11.32;;
4466;SDS011;2246;42.664;23.278;2022-09-09T03:07:42;17.02;;;10.70;;
4466;SDS011;2246;42.664;23.278;2022-09-09T03:10:08;14.40;;;11.13;;
4466;SDS011;2246;42.664;23.278;2022-09-09T03:12:35;12.67;;;10.33;;
4466;SDS011;2246;42.664;23.278;2022-09-09T03:15:01;16.88;;;11.10;;
4466;SDS011;2246;42.664;23.278;2022-09-09T03:17:27;13.80;;;10.02;;
4466;SDS011;2246;42.664;23.278;2022-09-09T03:19:53;17.77;;;10.32;;
4466;SDS011;2246;42.664;23.278;2022-09-09T03:22:20;15.70;;;10.98;;
4466;SDS011;2246;42.664;23.278;2022-09-09T03:24:46;13.25;;;9.93;;
4466;SDS011;2246;42.664;23.278;2022-09-09T03:27:13;15.98;;;10.52;;
4466;SDS011;2246;42.664;23.278;2022-09-09T03:29:42;15.90;;;11.55;;
4466;SDS011;2246;42.664;23.278;2022-09-09T03:32:09;18.38;;;11.90;;
4466;SDS011;2246;42.664;23.278;2022-09-09T03:34:35;13.27;;;10.73;;
4466;SDS011;2246;42.664;23.278;2022-09-09T03:37:05;14.30;;;10.07;;
4466;SDS011;2246;42.664;23.278;2022-09-09T03:39:31;21.95;;;11.10;;
4466;SDS011;2246;42.664;23.278;2022-09-09T03:41:57;13.95;;;11.30;;
4466;SDS011;2246;42.664;23.278;2022-09-09T03:44:23;17.80;;;11.15;;
4466;SDS011;2246;42.664;23.278;2022-09-09T03:46:49;15.43;;;10.15;;
4466;SDS011;2246;42.664;23.278;2022-09-09T03:49:15;18.02;;;10.55;;
4466;SDS011;2246;42.664;23.278;2022-09-09T03:51:41;13.02;;;10.00;;
4466;SDS011;2246;42.664;23.278;2022-09-09T03:54:08;24.50;;;11.27;;
4466;SDS011;2246;42.664;23.278;2022-09-09T03:56:35;20.30;;;11.70;;
4466;SDS011;2246;42.664;23.278;2022-09-09T03:59:02;18.25;;;11.30;;
4466;SDS011;2246;42.664;23.278;2022-09-09T04:01:28;17.70;;;11.90;;
4466;SDS011;2246;42.664;23.278;2022-09-09T04:03:54;29.45;;;16.75;;
4466;SDS011;2246;42.664;23.278;2022-09-09T04:06:23;20.30;;;13.30;;
4466;SDS011;2246;42.664;23.278;2022-09-09T04:08:49;24.02;;;13.82;;
4466;SDS011;2246;42.664;23.278;2022-09-09T04:11:17;19.52;;;14.60;;
4466;SDS011;2246;42.664;23.278;2022-09-09T04:13:43;20.67;;;11.63;;
4466;SDS011;2246;42.664;23.278;2022-09-09T04:16:10;19.52;;;13.73;;
4466;SDS011;2246;42.664;23.278;2022-09-09T04:18:38;28.33;;;13.70;;
4466;SDS011;2246;42.664;23.278;2022-09-09T04:21:04;24.02;;;13.25;;
4466;SDS011;2246;42.664;23.278;2022-09-09T04:23:32;24.80;;;13.70;;
4466;SDS011;2246;42.664;23.278;2022-09-09T04:25:59;47.30;;;27.27;;
4466;SDS011;2246;42.664;23.278;2022-09-09T04:28:27;18.63;;;12.18;;
4466;SDS011;2246;42.664;23.278;2022-09-09T04:30:53;23.90;;;12.85;;
4466;SDS011;2246;42.664;23.278;2022-09-09T04:33:19;21.05;;;11.68;;
4466;SDS011;2246;42.664;23.278;2022-09-09T04:35:46;21.40;;;12.07;;
4466;SDS011;2246;42.664;23.278;2022-09-09T04:38:13;24.90;;;12.25;;
4466;SDS011;2246;42.664;23.278;2022-09-09T04:40:41;24.58;;;13.23;;
4466;SDS011;2246;42.664;23.278;2022-09-09T04:43:08;23.48;;;13.52;;
4466;SDS011;2246;42.664;23.278;2022-09-09T04:45:34;22.98;;;12.77;;
4466;SDS011;2246;42.664;23.278;2022-09-09T04:48:00;18.77;;;12.15;;
4466;SDS011;2246;42.664;23.278;2022-09-09T04:50:27;24.60;;;13.17;;
4466;SDS011;2246;42.664;23.278;2022-09-09T04:52:53;25.08;;;12.80;;
4466;SDS011;2246;42.664;23.278;2022-09-09T04:55:20;19.48;;;12.30;;
4466;SDS011;2246;42.664;23.278;2022-09-09T04:57:46;22.30;;;11.68;;
4466;SDS011;2246;42.664;23.278;2022-09-09T05:00:13;21.20;;;13.60;;
4466;SDS011;2246;42.664;23.278;2022-09-09T05:02:39;37.78;;;17.98;;
4466;SDS011;2246;42.664;23.278;2022-09-09T05:07:33;29.95;;;17.52;;
4466;SDS011;2246;42.664;23.278;2022-09-09T05:09:59;21.02;;;14.90;;
4466;SDS011;2246;42.664;23.278;2022-09-09T05:12:25;25.25;;;13.80;;
4466;SDS011;2246;42.664;23.278;2022-09-09T05:14:52;25.30;;;13.77;;
4466;SDS011;2246;42.664;23.278;2022-09-09T05:17:18;39.80;;;21.63;;
4466;SDS011;2246;42.664;23.278;2022-09-09T05:19:44;29.45;;;14.90;;
4466;SDS011;2246;42.664;23.278;2022-09-09T05:22:10;32.80;;;18.75;;
4466;SDS011;2246;42.664;23.278;2022-09-09T05:24:37;27.13;;;14.05;;
4466;SDS011;2246;42.664;23.278;2022-09-09T05:27:03;19.48;;;11.95;;
4466;SDS011;2246;42.664;23.278;2022-09-09T05:29:30;20.57;;;10.40;;
4466;SDS011;2246;42.664;23.278;2022-09-09T05:31:58;15.80;;;10.05;;
4466;SDS011;2246;42.664;23.278;2022-09-09T05:34:24;18.23;;;10.25;;
4466;SDS011;2246;42.664;23.278;2022-09-09T05:36:50;20.25;;;10.63;;
4466;SDS011;2246;42.664;23.278;2022-09-09T05:39:17;25.52;;;14.77;;
4466;SDS011;2246;42.664;23.278;2022-09-09T05:41:43;17.77;;;10.02;;
4466;SDS011;2246;42.664;23.278;2022-09-09T05:44:09;22.33;;;11.05;;
4466;SDS011;2246;42.664;23.278;2022-09-09T05:46:35;17.73;;;11.13;;
4466;SDS011;2246;42.664;23.278;2022-09-09T05:49:02;23.85;;;10.68;;
4466;SDS011;2246;42.664;23.278;2022-09-09T05:51:30;20.77;;;10.90;;
4466;SDS011;2246;42.664;23.278;2022-09-09T05:53:56;23.77;;;11.05;;
4466;SDS011;2246;42.664;23.278;2022-09-09T05:56:24;16.50;;;10.50;;
4466;SDS011;2246;42.664;23.278;2022-09-09T05:58:50;22.83;;;12.10;;
4466;SDS011;2246;42.664;23.278;2022-09-09T06:01:22;18.15;;;10.32;;
4466;SDS011;2246;42.664;23.278;2022-09-09T06:03:48;21.92;;;11.52;;
4466;SDS011;2246;42.664;23.278;2022-09-09T06:06:16;29.77;;;15.33;;
4466;SDS011;2246;42.664;23.278;2022-09-09T06:08:43;21.15;;;10.93;;
4466;SDS011;2246;42.664;23.278;2022-09-09T06:11:28;20.45;;;12.18;;
4466;SDS011;2246;42.664;23.278;2022-09-09T06:13:56;22.90;;;12.05;;
4466;SDS011;2246;42.664;23.278;2022-09-09T06:16:23;23.88;;;13.13;;
4466;SDS011;2246;42.664;23.278;2022-09-09T06:18:49;27.45;;;19.17;;
4466;SDS011;2246;42.664;23.278;2022-09-09T06:21:19;21.90;;;12.80;;
4466;SDS011;2246;42.664;23.278;2022-09-09T06:23:46;23.17;;;13.00;;
4466;SDS011;2246;42.664;23.278;2022-09-09T06:26:20;19.80;;;11.57;;
4466;SDS011;2246;42.664;23.278;2022-09-09T06:28:47;24.83;;;12.63;;
4466;SDS011;2246;42.664;23.278;2022-09-09T06:31:15;19.05;;;11.07;;
4466;SDS011;2246;42.664;23.278;2022-09-09T06:33:47;22.23;;;11.32;;
4466;SDS011;2246;42.664;23.278;2022-09-09T06:36:24;20.95;;;11.88;;
4466;SDS011;2246;42.664;23.278;2022-09-09T06:38:50;17.85;;;11.52;;
4466;SDS011;2246;42.664;23.278;2022-09-09T06:41:17;24.42;;;13.57;;
4466;SDS011;2246;42.664;23.278;2022-09-09T06:43:44;24.02;;;14.05;;
4466;SDS011;2246;42.664;23.278;2022-09-09T06:46:12;23.05;;;12.00;;
4466;SDS011;2246;42.664;23.278;2022-09-09T06:48:38;20.67;;;11.63;;
4466;SDS011;2246;42.664;23.278;2022-09-09T06:51:08;21.95;;;11.73;;
4466;SDS011;2246;42.664;23.278;2022-09-09T06:53:36;24.48;;;12.02;;
4466;SDS011;2246;42.664;23.278;2022-09-09T06:56:48;24.63;;;11.75;;
4466;SDS011;2246;42.664;23.278;2022-09-09T06:58:50;20.75;;;11.13;;
4466;SDS011;2246;42.664;23.278;2022-09-09T07:01:17;26.67;;;12.50;;
4466;SDS011;2246;42.664;23.278;2022-09-09T07:06:31;20.23;;;11.48;;
4466;SDS011;2246;42.664;23.278;2022-09-09T07:08:57;24.77;;;11.57;;
4466;SDS011;2246;42.664;23.278;2022-09-09T07:11:25;17.40;;;11.23;;
4466;SDS011;2246;42.664;23.278;2022-09-09T07:13:52;23.17;;;12.70;;
4466;SDS011;2246;42.664;23.278;2022-09-09T07:16:19;30.02;;;12.98;;
4466;SDS011;2246;42.664;23.278;2022-09-09T07:18:45;24.02;;;12.02;;
4466;SDS011;2246;42.664;23.278;2022-09-09T07:21:13;22.98;;;12.05;;
4466;SDS011;2246;42.664;23.278;2022-09-09T07:23:39;22.38;;;12.20;;
4466;SDS011;2246;42.664;23.278;2022-09-09T07:26:12;20.63;;;12.82;;
4466;SDS011;2246;42.664;23.278;2022-09-09T07:28:39;23.80;;;11.88;;
4466;SDS011;2246;42.664;23.278;2022-09-09T07:31:06;21.85;;;11.82;;
4466;SDS011;2246;42.664;23.278;2022-09-09T07:33:33;14.63;;;9.13;;
4466;SDS011;2246;42.664;23.278;2022-09-09T07:38:38;22.38;;;11.20;;
4466;SDS011;2246;42.664;23.278;2022-09-09T07:41:08;28.77;;;10.75;;
4466;SDS011;2246;42.664;23.278;2022-09-09T07:43:37;23.75;;;10.25;;
4466;SDS011;2246;42.664;23.278;2022-09-09T07:46:04;14.95;;;9.05;;
4466;SDS011;2246;42.664;23.278;2022-09-09T07:48:31;14.60;;;8.30;;
4466;SDS011;2246;42.664;23.278;2022-09-09T07:51:31;16.17;;;8.45;;
4466;SDS011;2246;42.664;23.278;2022-09-09T07:53:56;16.92;;;7.93;;
4466;SDS011;2246;42.664;23.278;2022-09-09T07:56:23;14.30;;;8.82;;
4466;SDS011;2246;42.664;23.278;2022-09-09T07:58:50;25.33;;;8.48;;
4466;SDS011;2246;42.664;23.278;2022-09-09T08:01:17;14.80;;;8.20;;
4466;SDS011;2246;42.664;23.278;2022-09-09T08:06:09;18.08;;;7.85;;
4466;SDS011;2246;42.664;23.278;2022-09-09T08:08:37;17.05;;;7.55;;
4466;SDS011;2246;42.664;23.278;2022-09-09T08:11:13;13.33;;;8.20;;
4466;SDS011;2246;42.664;23.278;2022-09-09T08:13:41;20.85;;;8.88;;
4466;SDS011;2246;42.664;23.278;2022-09-09T08:18:36;13.85;;;7.97;;
4466;SDS011;2246;42.664;23.278;2022-09-09T08:21:10;17.77;;;8.23;;
4466;SDS011;2246;42.664;23.278;2022-09-09T08:23:38;11.15;;;7.82;;
4466;SDS011;2246;42.664;23.278;2022-09-09T08:26:05;16.17;;;8.38;;
4466;SDS011;2246;42.664;23.278;2022-09-09T08:28:31;10.55;;;7.75;;
4466;SDS011;2246;42.664;23.278;2022-09-09T08:31:04;14.60;;;8.85;;
4466;SDS011;2246;42.664;23.278;2022-09-09T08:33:31;16.83;;;9.30;;
4466;SDS011;2246;42.664;23.278;2022-09-09T08:35:58;18.07;;;8.53;;
4466;SDS011;2246;42.664;23.278;2022-09-09T08:38:24;18.08;;;7.75;;
4466;SDS011;2246;42.664;23.278;2022-09-09T08:40:50;14.48;;;8.18;;
4466;SDS011;2246;42.664;23.278;2022-09-09T08:43:20;18.40;;;8.23;;
4466;SDS011;2246;42.664;23.278;2022-09-09T08:45:55;18.02;;;8.10;;
4466;SDS011;2246;42.664;23.278;2022-09-09T08:51:00;16.73;;;7.90;;
4466;SDS011;2246;42.664;23.278;2022-09-09T08:53:28;14.32;;;7.38;;
4466;SDS011;2246;42.664;23.278;2022-09-09T08:56:03;17.25;;;6.90;;
4466;SDS011;2246;42.664;23.278;2022-09-09T08:58:33;15.55;;;7.22;;
4466;SDS011;2246;42.664;23.278;2022-09-09T09:11:33;18.20;;;7.32;;
4466;SDS011;2246;42.664;23.278;2022-09-09T09:19:28;12.73;;;6.80;;
4466;SDS011;2246;42.664;23.278;2022-09-09T09:26:50;13.38;;;6.32;;
4466;SDS011;2246;42.664;23.278;2022-09-09T09:29:18;19.25;;;6.43;;
4466;SDS011;2246;42.664;23.278;2022-09-09T09:34:16;13.38;;;6.07;;
4466;SDS011;2246;42.664;23.278;2022-09-09T09:36:44;10.57;;;5.70;;
4466;SDS011;2246;42.664;23.278;2022-09-09T09:39:21;12.80;;;6.38;;
4466;SDS011;2246;42.664;23.278;2022-09-09T09:41:48;17.85;;;6.03;;
4466;SDS011;2246;42.664;23.278;2022-09-09T09:46:49;21.55;;;6.05;;
4466;SDS011;2246;42.664;23.278;2022-09-09T09:49:15;14.18;;;5.57;;
4466;SDS011;2246;42.664;23.278;2022-09-09T09:51:42;12.52;;;5.90;;
4466;SDS011;2246;42.664;23.278;2022-09-09T09:56:44;12.93;;;5.55;;
4466;SDS011;2246;42.664;23.278;2022-09-09T09:59:24;15.13;;;5.33;;
4466;SDS011;2246;42.664;23.278;2022-09-09T10:02:59;17.13;;;7.45;;
4466;SDS011;2246;42.664;23.278;2022-09-09T10:05:28;17.67;;;5.95;;
4466;SDS011;2246;42.664;23.278;2022-09-09T10:07:47;19.27;;;6.25;;
4466;SDS011;2246;42.664;23.278;2022-09-09T10:10:29;43.10;;;6.97;;
4466;SDS011;2246;42.664;23.278;2022-09-09T10:13:00;14.93;;;6.10;;
4466;SDS011;2246;42.664;23.278;2022-09-09T10:15:52;17.98;;;5.57;;
4466;SDS011;2246;42.664;23.278;2022-09-09T10:29:01;15.23;;;6.32;;
4466;SDS011;2246;42.664;23.278;2022-09-09T10:34:06;13.27;;;5.63;;
4466;SDS011;2246;42.664;23.278;2022-09-09T10:36:39;25.35;;;6.50;;
4466;SDS011;2246;42.664;23.278;2022-09-09T10:44:42;12.23;;;5.78;;
4466;SDS011;2246;42.664;23.278;2022-09-09T10:57:39;12.25;;;6.95;;
4466;SDS011;2246;42.664;23.278;2022-09-09T11:00:10;17.52;;;7.07;;
4466;SDS011;2246;42.664;23.278;2022-09-09T11:02:39;14.20;;;6.72;;
4466;SDS011;2246;42.664;23.278;2022-09-09T11:05:19;20.88;;;7.10;;
4466;SDS011;2246;42.664;23.278;2022-09-09T11:10:44;23.63;;;7.45;;
4466;SDS011;2246;42.664;23.278;2022-09-09T11:13:11;17.75;;;6.97;;
4466;SDS011;2246;42.664;23.278;2022-09-09T11:15:48;12.25;;;6.70;;
4466;SDS011;2246;42.664;23.278;2022-09-09T11:18:19;24.65;;;7.15;;
4466;SDS011;2246;42.664;23.278;2022-09-09T11:20:47;20.60;;;7.40;;
4466;SDS011;2246;42.664;23.278;2022-09-09T11:23:21;17.52;;;7.32;;
4466;SDS011;2246;42.664;23.278;2022-09-09T11:25:51;20.38;;;6.57;;
4466;SDS011;2246;42.664;23.278;2022-09-09T11:38:37;16.20;;;7.35;;
4466;SDS011;2246;42.664;23.278;2022-09-09T11:41:07;11.73;;;7.50;;
4466;SDS011;2246;42.664;23.278;2022-09-09T11:46:10;18.45;;;7.70;;
4466;SDS011;2246;42.664;23.278;2022-09-09T11:48:38;13.18;;;7.35;;
4466;SDS011;2246;42.664;23.278;2022-09-09T11:51:06;19.45;;;7.63;;
4466;SDS011;2246;42.664;23.278;2022-09-09T11:53:32;19.35;;;8.13;;
4466;SDS011;2246;42.664;23.278;2022-09-09T11:56:32;20.05;;;8.20;;
4466;SDS011;2246;42.664;23.278;2022-09-09T11:58:55;19.38;;;7.68;;
4466;SDS011;2246;42.664;23.278;2022-09-09T12:03:55;12.82;;;7.18;;
4466;SDS011;2246;42.664;23.278;2022-09-09T12:06:30;22.88;;;7.53;;
4466;SDS011;2246;42.664;23.278;2022-09-09T12:09:04;17.65;;;7.65;;
4466;SDS011;2246;42.664;23.278;2022-09-09T12:11:32;16.77;;;8.60;;
4466;SDS011;2246;42.664;23.278;2022-09-09T12:13:58;15.75;;;7.20;;
4466;SDS011;2246;42.664;23.278;2022-09-09T12:16:35;14.05;;;6.70;;
4466;SDS011;2246;42.664;23.278;2022-09-09T12:21:33;20.13;;;7.38;;
4466;SDS011;2246;42.664;23.278;2022-09-09T12:24:09;17.65;;;6.80;;
4466;SDS011;2246;42.664;23.278;2022-09-09T12:26:43;15.35;;;7.13;;
4466;SDS011;2246;42.664;23.278;2022-09-09T12:34:53;12.65;;;6.50;;
4466;SDS011;2246;42.664;23.278;2022-09-09T12:37:35;21.90;;;7.30;;
4466;SDS011;2246;42.664;23.278;2022-09-09T12:40:04;23.85;;;7.53;;
4466;SDS011;2246;42.664;23.278;2022-09-09T12:42:31;16.67;;;6.18;;
4466;SDS011;2246;42.664;23.278;2022-09-09T12:45:02;15.18;;;6.32;;
4466;SDS011;2246;42.664;23.278;2022-09-09T12:50:16;20.27;;;7.30;;
4466;SDS011;2246;42.664;23.278;2022-09-09T12:52:43;15.70;;;6.93;;
4466;SDS011;2246;42.664;23.278;2022-09-09T12:55:20;11.35;;;5.72;;
4466;SDS011;2246;42.664;23.278;2022-09-09T12:57:50;19.70;;;6.65;;
4466;SDS011;2246;42.664;23.278;2022-09-09T13:00:17;22.63;;;7.57;;
4466;SDS011;2246;42.664;23.278;2022-09-09T13:02:46;15.80;;;6.75;;
4466;SDS011;2246;42.664;23.278;2022-09-09T13:05:20;21.02;;;7.32;;
4466;SDS011;2246;42.664;23.278;2022-09-09T13:07:46;19.33;;;6.38;;
4466;SDS011;2246;42.664;23.278;2022-09-09T13:10:13;13.63;;;6.70;;
4466;SDS011;2246;42.664;23.278;2022-09-09T13:12:40;15.90;;;6.45;;
4466;SDS011;2246;42.664;23.278;2022-09-09T13:15:14;15.70;;;6.70;;
4466;SDS011;2246;42.664;23.278;2022-09-09T13:17:48;29.08;;;6.80;;
4466;SDS011;2246;42.664;23.278;2022-09-09T13:20:18;21.92;;;6.82;;
4466;SDS011;2246;42.664;23.278;2022-09-09T13:22:44;24.38;;;7.03;;
4466;SDS011;2246;42.664;23.278;2022-09-09T13:27:39;18.45;;;7.03;;
4466;SDS011;2246;42.664;23.278;2022-09-09T13:33:00;20.30;;;7.35;;
4466;SDS011;2246;42.664;23.278;2022-09-09T13:35:27;16.10;;;6.88;;
4466;SDS011;2246;42.664;23.278;2022-09-09T13:37:54;18.73;;;7.07;;
4466;SDS011;2246;42.664;23.278;2022-09-09T13:40:21;18.73;;;6.72;;
4466;SDS011;2246;42.664;23.278;2022-09-09T13:42:50;19.92;;;7.22;;
4466;SDS011;2246;42.664;23.278;2022-09-09T13:47:45;23.23;;;7.40;;
4466;SDS011;2246;42.664;23.278;2022-09-09T13:52:48;23.45;;;8.25;;
4466;SDS011;2246;42.664;23.278;2022-09-09T13:55:16;17.85;;;7.53;;
4466;SDS011;2246;42.664;23.278;2022-09-09T13:57:55;17.17;;;7.20;;
4466;SDS011;2246;42.664;23.278;2022-09-09T14:00:22;27.95;;;7.40;;
4466;SDS011;2246;42.664;23.278;2022-09-09T14:02:49;17.50;;;7.13;;
4466;SDS011;2246;42.664;23.278;2022-09-09T14:05:15;24.00;;;6.95;;
4466;SDS011;2246;42.664;23.278;2022-09-09T14:07:42;19.63;;;7.27;;
4466;SDS011;2246;42.664;23.278;2022-09-09T14:10:08;18.85;;;7.68;;
4466;SDS011;2246;42.664;23.278;2022-09-09T14:12:35;12.82;;;6.93;;
4466;SDS011;2246;42.664;23.278;2022-09-09T14:15:01;20.88;;;7.25;;
4466;SDS011;2246;42.664;23.278;2022-09-09T14:17:34;16.05;;;6.75;;
4466;SDS011;2246;42.664;23.278;2022-09-09T14:20:01;21.25;;;7.32;;
4466;SDS011;2246;42.664;23.278;2022-09-09T14:22:31;26.77;;;8.00;;
4466;SDS011;2246;42.664;23.278;2022-09-09T14:24:57;14.77;;;7.28;;
4466;SDS011;2246;42.664;23.278;2022-09-09T14:27:23;25.00;;;6.85;;
4466;SDS011;2246;42.664;23.278;2022-09-09T14:29:51;23.90;;;7.15;;
4466;SDS011;2246;42.664;23.278;2022-09-09T14:32:17;21.33;;;7.20;;
4466;SDS011;2246;42.664;23.278;2022-09-09T14:34:43;20.70;;;7.07;;
4466;SDS011;2246;42.664;23.278;2022-09-09T14:37:09;13.75;;;6.82;;
4466;SDS011;2246;42.664;23.278;2022-09-09T14:39:36;19.05;;;7.43;;
4466;SDS011;2246;42.664;23.278;2022-09-09T14:42:04;16.85;;;7.00;;
4466;SDS011;2246;42.664;23.278;2022-09-09T14:44:31;15.90;;;7.65;;
4466;SDS011;2246;42.664;23.278;2022-09-09T14:46:58;16.77;;;7.72;;
4466;SDS011;2246;42.664;23.278;2022-09-09T14:49:24;19.25;;;7.57;;
4466;SDS011;2246;42.664;23.278;2022-09-09T14:51:50;18.15;;;7.05;;
4466;SDS011;2246;42.664;23.278;2022-09-09T14:54:16;19.20;;;7.30;;
4466;SDS011;2246;42.664;23.278;2022-09-09T14:56:42;16.45;;;6.70;;
4466;SDS011;2246;42.664;23.278;2022-09-09T14:59:08;22.17;;;7.82;;
4466;SDS011;2246;42.664;23.278;2022-09-09T15:01:34;16.45;;;6.50;;
4466;SDS011;2246;42.664;23.278;2022-09-09T15:04:02;21.15;;;7.38;;
4466;SDS011;2246;42.664;23.278;2022-09-09T15:06:29;14.93;;;6.93;;
4466;SDS011;2246;42.664;23.278;2022-09-09T15:08:57;22.25;;;7.70;;
4466;SDS011;2246;42.664;23.278;2022-09-09T15:11:26;25.02;;;7.18;;
4466;SDS011;2246;42.664;23.278;2022-09-09T15:13:52;17.88;;;7.13;;
4466;SDS011;2246;42.664;23.278;2022-09-09T15:16:20;12.10;;;6.77;;
4466;SDS011;2246;42.664;23.278;2022-09-09T15:18:46;17.90;;;7.30;;
4466;SDS011;2246;42.664;23.278;2022-09-09T15:21:13;26.20;;;7.15;;
4466;SDS011;2246;42.664;23.278;2022-09-09T15:23:40;24.77;;;7.78;;
4466;SDS011;2246;42.664;23.278;2022-09-09T15:26:06;28.15;;;7.78;;
4466;SDS011;2246;42.664;23.278;2022-09-09T15:28:33;20.88;;;7.55;;
4466;SDS011;2246;42.664;23.278;2022-09-09T15:31:24;20.70;;;7.57;;
4466;SDS011;2246;42.664;23.278;2022-09-09T15:36:19;19.85;;;6.75;;
4466;SDS011;2246;42.664;23.278;2022-09-09T15:38:45;20.05;;;7.20;;
4466;SDS011;2246;42.664;23.278;2022-09-09T15:41:12;19.60;;;7.10;;
4466;SDS011;2246;42.664;23.278;2022-09-09T15:43:38;30.73;;;7.33;;
4466;SDS011;2246;42.664;23.278;2022-09-09T15:48:45;35.90;;;8.82;;
4466;SDS011;2246;42.664;23.278;2022-09-09T15:51:13;40.17;;;9.13;;
4466;SDS011;2246;42.664;23.278;2022-09-09T15:53:39;19.33;;;8.07;;
4466;SDS011;2246;42.664;23.278;2022-09-09T15:56:06;27.05;;;8.02;;
4466;SDS011;2246;42.664;23.278;2022-09-09T15:58:32;22.42;;;7.72;;
4466;SDS011;2246;42.664;23.278;2022-09-09T16:01:02;21.60;;;8.05;;
4466;SDS011;2246;42.664;23.278;2022-09-09T16:03:29;26.10;;;8.90;;
4466;SDS011;2246;42.664;23.278;2022-09-09T16:05:55;24.20;;;8.15;;
4466;SDS011;2246;42.664;23.278;2022-09-09T16:08:21;32.55;;;9.20;;
4466;SDS011;2246;42.664;23.278;2022-09-09T16:10:48;22.55;;;8.48;;
4466;SDS011;2246;42.664;23.278;2022-09-09T16:13:14;25.98;;;8.48;;
4466;SDS011;2246;42.664;23.278;2022-09-09T16:15:40;29.45;;;10.30;;
4466;SDS011;2246;42.664;23.278;2022-09-09T16:18:06;31.88;;;11.18;;
4466;SDS011;2246;42.664;23.278;2022-09-09T16:20:32;17.13;;;8.45;;
4466;SDS011;2246;42.664;23.278;2022-09-09T16:22:58;20.77;;;9.23;;
4466;SDS011;2246;42.664;23.278;2022-09-09T16:25:26;18.70;;;8.32;;
4466;SDS011;2246;42.664;23.278;2022-09-09T16:27:52;13.93;;;7.72;;
4466;SDS011;2246;42.664;23.278;2022-09-09T16:30:18;22.08;;;8.93;;
4466;SDS011;2246;42.664;23.278;2022-09-09T16:32:45;23.15;;;9.15;;
4466;SDS011;2246;42.664;23.278;2022-09-09T16:35:11;24.40;;;8.35;;
4466;SDS011;2246;42.664;23.278;2022-09-09T16:37:37;30.92;;;8.43;;
4466;SDS011;2246;42.664;23.278;2022-09-09T16:40:03;23.42;;;9.27;;
4466;SDS011;2246;42.664;23.278;2022-09-09T16:42:30;26.75;;;9.90;;
4466;SDS011;2246;42.664;23.278;2022-09-09T16:44:56;30.38;;;9.65;;
4466;SDS011;2246;42.664;23.278;2022-09-09T16:47:22;18.60;;;9.68;;
4466;SDS011;2246;42.664;23.278;2022-09-09T16:49:48;17.52;;;9.02;;
4466;SDS011;2246;42.664;23.278;2022-09-09T16:52:14;25.52;;;9.27;;
4466;SDS011;2246;42.664;23.278;2022-09-09T16:54:40;23.27;;;8.90;;
4466;SDS011;2246;42.664;23.278;2022-09-09T16:57:06;26.77;;;10.07;;
4466;SDS011;2246;42.664;23.278;2022-09-09T16:59:32;17.73;;;9.65;;
4466;SDS011;2246;42.664;23.278;2022-09-09T17:01:59;19.80;;;9.52;;
4466;SDS011;2246;42.664;23.278;2022-09-09T17:04:26;15.82;;;9.18;;
4466;SDS011;2246;42.664;23.278;2022-09-09T17:06:54;27.90;;;11.37;;
4466;SDS011;2246;42.664;23.278;2022-09-09T17:09:21;23.88;;;10.32;;
4466;SDS011;2246;42.664;23.278;2022-09-09T17:11:47;26.02;;;9.50;;
4466;SDS011;2246;42.664;23.278;2022-09-09T17:14:16;26.40;;;9.75;;
4466;SDS011;2246;42.664;23.278;2022-09-09T17:16:43;16.00;;;9.23;;
4466;SDS011;2246;42.664;23.278;2022-09-09T17:19:09;20.92;;;10.05;;
4466;SDS011;2246;42.664;23.278;2022-09-09T17:21:36;23.15;;;9.73;;
4466;SDS011;2246;42.664;23.278;2022-09-09T17:24:02;19.73;;;9.87;;
4466;SDS011;2246;42.664;23.278;2022-09-09T17:26:29;23.83;;;8.50;;
4466;SDS011;2246;42.664;23.278;2022-09-09T17:28:57;22.70;;;8.73;;
4466;SDS011;2246;42.664;23.278;2022-09-09T17:31:23;30.20;;;11.43;;
4466;SDS011;2246;42.664;23.278;2022-09-09T17:33:50;21.42;;;12.00;;
4466;SDS011;2246;42.664;23.278;2022-09-09T17:38:47;22.77;;;10.57;;